Time;durP1;ratioP1;P1;durP2;ratioP2;P2;SDS_P1;SDS_P2;PMS_P1;PMS_P2;Temp;Humidity;BMP_temperature;BMP_pressure;BME280_temperature;BME280_humidity;BME280_pressure;Samples;Min_cycle;Max_cycle;Signal;HPM_P1;HPM_P2
2021/08/29 00:01:21;;;;;;;14.35;10.68;;;;;;;19.17;63.10;93229.00;4971893;28;20042;-78
2021/08/29 00:03:47;;;;;;;17.65;10.32;;;;;;;19.15;63.06;93236.72;4974216;28;20595;-78
2021/08/29 00:06:12;;;;;;;13.88;9.48;;;;;;;19.02;63.36;93227.44;4979816;28;20156;-78
2021/08/29 00:08:38;;;;;;;10.98;9.80;;;;;;;19.16;62.82;93243.66;4970822;28;20062;-78
2021/08/29 00:11:03;;;;;;;18.00;11.13;;;;;;;18.98;63.56;93223.94;4975761;28;20073;-79
2021/08/29 00:13:29;;;;;;;13.48;10.90;;;;;;;18.81;64.10;93207.34;4972976;28;20570;-77
2021/08/29 00:15:54;;;;;;;16.48;10.43;;;;;;;18.73;64.28;93211.16;4976926;28;20046;-78
2021/08/29 00:18:19;;;;;;;18.25;12.38;;;;;;;18.79;64.28;93209.66;4976383;28;20497;-78
2021/08/29 00:20:46;;;;;;;14.43;10.07;;;;;;;18.97;63.45;93208.94;4986950;28;20042;-79
2021/08/29 00:23:11;;;;;;;14.90;11.18;;;;;;;18.97;63.88;93220.47;4973652;28;20486;-78
2021/08/29 00:25:37;;;;;;;17.10;11.55;;;;;;;18.97;64.08;93219.72;4974803;28;20030;-78
2021/08/29 00:28:03;;;;;;;17.73;12.13;;;;;;;19.29;63.29;93228.69;4975810;28;20057;-78
2021/08/29 00:30:29;;;;;;;24.13;11.35;;;;;;;19.14;63.44;93211.69;4972517;28;20413;-78
2021/08/29 00:32:54;;;;;;;17.45;12.73;;;;;;;19.20;63.84;93228.28;4979715;28;20072;-78
2021/08/29 00:35:20;;;;;;;15.85;11.38;;;;;;;19.19;63.96;93232.09;4975370;28;20505;-78
2021/08/29 00:37:45;;;;;;;16.00;11.80;;;;;;;18.93;65.11;93230.47;4984744;28;20193;-78
2021/08/29 00:40:11;;;;;;;15.57;11.82;;;;;;;18.85;65.68;93213.53;4977562;28;20572;-78
2021/08/29 00:42:36;;;;;;;17.80;12.20;;;;;;;18.89;65.42;93213.53;4971690;28;20034;-78
2021/08/29 00:45:03;;;;;;;15.68;11.82;;;;;;;18.88;66.04;93223.53;4977663;28;20038;-78
2021/08/29 00:47:31;;;;;;;15.10;12.30;;;;;;;18.92;66.22;93222.78;4972176;28;20038;-78
2021/08/29 00:49:56;;;;;;;14.80;11.98;;;;;;;18.88;66.03;93204.66;4975111;28;20030;-79
2021/08/29 00:52:22;;;;;;;20.38;13.30;;;;;;;18.82;66.38;93214.25;4973308;28;20467;-79
2021/08/29 00:54:47;;;;;;;13.02;11.05;;;;;;;19.05;66.08;93215.91;4975806;28;20042;-79
2021/08/29 00:57:13;;;;;;;15.85;11.15;;;;;;;19.17;65.36;93229.00;4976027;28;20655;-78
2021/08/29 00:59:42;;;;;;;17.10;14.13;;;;;;;19.19;65.33;93232.09;4974767;28;20046;-78
2021/08/29 01:02:12;;;;;;;17.13;12.35;;;;;;;19.31;65.34;93237.16;4975180;28;20488;-78
2021/08/29 01:05:01;;;;;;;18.60;12.93;;;;;;;19.42;65.30;93235.25;4972250;28;20073;-78
2021/08/29 01:07:49;;;;;;;20.13;14.77;;;;;;;19.44;65.11;93237.56;4956892;28;20043;-78
2021/08/29 01:10:19;;;;;;;23.58;14.75;;;;;;;19.47;64.94;93237.59;4967724;28;20431;-79
2021/08/29 01:12:48;;;;;;;21.65;14.00;;;;;;;19.47;64.96;93236.81;4976541;28;20042;-78
2021/08/29 01:15:14;;;;;;;19.60;14.65;;;;;;;19.47;65.08;93221.41;4975921;28;20038;-78
2021/08/29 01:17:44;;;;;;;21.10;15.15;;;;;;;19.38;65.44;93214.81;4973880;28;21149;-77
2021/08/29 01:20:19;;;;;;;21.50;14.45;;;;;;;19.28;65.91;93219.81;4959599;28;20066;-78
2021/08/29 01:22:46;;;;;;;26.63;17.70;;;;;;;19.38;65.55;93212.13;4975781;28;20030;-78
2021/08/29 01:25:17;;;;;;;22.80;16.52;;;;;;;19.44;65.54;93222.16;4973691;28;20054;-78
2021/08/29 01:28:02;;;;;;;21.25;17.63;;;;;;;19.33;65.91;93222.13;4975549;28;20034;-78
2021/08/29 01:30:28;;;;;;;28.38;20.27;;;;;;;19.29;66.37;93232.16;4974887;28;20078;-78
2021/08/29 01:32:55;;;;;;;26.95;19.98;;;;;;;19.23;66.15;93230.19;4976590;28;20138;-78
2021/08/29 01:35:22;;;;;;;30.83;21.35;;;;;;;19.16;66.22;93230.19;4972038;28;20068;-78
2021/08/29 01:37:48;;;;;;;30.60;22.52;;;;;;;19.16;66.40;93238.28;4974105;28;20041;-78
2021/08/29 01:40:13;;;;;;;31.73;22.65;;;;;;;19.15;66.59;93255.59;4971090;28;20718;-78
2021/08/29 01:42:40;;;;;;;34.00;23.20;;;;;;;19.08;66.99;93242.06;4970265;28;20048;-78
2021/08/29 01:45:06;;;;;;;32.10;23.02;;;;;;;18.99;66.97;93238.97;4977902;28;20042;-78
2021/08/29 01:47:32;;;;;;;32.75;22.55;;;;;;;18.86;67.98;93250.09;4972848;28;20450;-78
2021/08/29 01:49:59;;;;;;;33.33;22.80;;;;;;;18.97;67.83;93255.50;4974352;28;20114;-78
2021/08/29 01:52:24;;;;;;;32.65;21.38;;;;;;;18.96;67.37;93243.22;4974556;28;20524;-78
2021/08/29 01:54:50;;;;;;;32.53;22.90;;;;;;;19.07;67.49;93264.78;4974008;28;20146;-78
2021/08/29 01:57:15;;;;;;;34.30;21.48;;;;;;;18.99;67.99;93261.31;4973929;28;20041;-78
2021/08/29 01:59:45;;;;;;;32.15;21.95;;;;;;;18.68;68.38;93224.94;4965323;28;20497;-78
2021/08/29 02:02:11;;;;;;;27.40;20.73;;;;;;;18.85;68.28;93255.84;4975877;28;20670;-78
2021/08/29 02:04:37;;;;;;;30.40;20.42;;;;;;;18.65;68.52;93233.78;4975223;28;20381;-79
2021/08/29 02:07:19;;;;;;;27.55;21.35;;;;;;;18.80;67.75;93240.81;4974020;28;20346;-78
2021/08/29 02:09:48;;;;;;;29.48;20.67;;;;;;;18.78;67.57;93228.88;4974619;28;20054;-79
2021/08/29 02:12:14;;;;;;;26.90;20.35;;;;;;;18.82;67.79;93241.19;4974502;28;20038;-78
2021/08/29 02:14:58;;;;;;;29.38;20.30;;;;;;;18.84;68.04;93255.06;4963157;28;20764;-78
2021/08/29 02:17:25;;;;;;;23.48;19.55;;;;;;;18.80;67.98;93240.81;4960809;28;20066;-79
2021/08/29 02:19:53;;;;;;;32.30;20.35;;;;;;;18.89;67.99;93257.41;4973517;28;20077;-78
2021/08/29 02:22:20;;;;;;;29.63;20.50;;;;;;;18.87;67.74;93267.78;4978868;28;20046;-78
2021/08/29 02:24:45;;;;;;;31.48;20.20;;;;;;;18.91;67.66;93254.34;4969801;28;20410;-78
2021/08/29 02:27:11;;;;;;;28.30;20.15;;;;;;;18.80;68.36;93253.53;4975363;28;20045;-78
2021/08/29 02:29:38;;;;;;;30.58;19.88;;;;;;;18.77;68.58;93244.25;4975811;28;20030;-78
2021/08/29 02:32:05;;;;;;;30.02;19.73;;;;;;;18.92;68.47;93255.13;4970419;28;20030;-78
2021/08/29 02:34:30;;;;;;;30.08;19.50;;;;;;;19.08;67.35;93247.47;4973842;28;20113;-78
2021/08/29 02:36:57;;;;;;;27.48;19.42;;;;;;;19.12;67.40;93248.25;4974256;28;20054;-78
2021/08/29 02:39:25;;;;;;;25.20;18.85;;;;;;;19.14;67.24;93256.72;4975555;28;20034;-78
2021/08/29 02:41:56;;;;;;;24.48;17.70;;;;;;;18.95;67.11;93222.03;4975366;28;20124;-78
2021/08/29 02:44:23;;;;;;;25.85;18.05;;;;;;;19.26;66.65;93259.84;4975719;28;20058;-79
2021/08/29 02:46:50;;;;;;;25.77;17.48;;;;;;;19.23;66.83;93255.22;4973751;28;20042;-78
2021/08/29 02:49:20;;;;;;;23.33;16.25;;;;;;;19.33;66.80;93278.75;4973473;28;20038;-79
2021/08/29 02:51:49;;;;;;;22.15;17.17;;;;;;;19.34;66.46;93268.75;4971071;28;20045;-78
2021/08/29 02:54:15;;;;;;;26.90;17.15;;;;;;;19.38;66.47;93274.13;4974344;28;20132;-78
2021/08/29 02:56:43;;;;;;;28.13;17.90;;;;;;;19.35;66.84;93256.81;4971435;28;20058;-78
2021/08/29 02:59:09;;;;;;;23.67;17.45;;;;;;;19.43;67.00;93262.97;4972524;28;20038;-78
2021/08/29 03:01:34;;;;;;;16.17;12.30;;;;;;;19.44;65.69;93249.13;4971739;28;20019;-78
2021/08/29 03:04:00;;;;;;;28.42;14.57;;;;;;;19.44;66.05;93243.72;4971922;28;20042;-78
2021/08/29 03:06:26;;;;;;;21.05;12.60;;;;;;;19.53;66.53;93264.97;4975317;28;20200;-78
2021/08/29 03:08:52;;;;;;;12.45;8.25;;;;;;;19.16;67.11;93276.00;4972379;28;20604;-79
2021/08/29 03:11:20;;;;;;;16.70;10.38;;;;;;;19.05;67.76;93296.75;4974520;28;20030;-78
2021/08/29 03:13:47;;;;;;;21.25;10.90;;;;;;;18.92;69.12;93265.91;4975172;28;20061;-78
2021/08/29 03:16:13;;;;;;;14.43;9.63;;;;;;;18.94;69.53;93247.41;4976010;28;20449;-78
2021/08/29 03:18:39;;;;;;;17.30;10.93;;;;;;;18.60;71.13;93209.13;4990929;28;20040;-78
2021/08/29 03:21:04;;;;;;;12.73;9.50;;;;;;;18.99;70.02;93222.81;4976608;28;20158;-79
2021/08/29 03:23:30;;;;;;;19.67;10.30;;;;;;;18.84;70.72;93224.66;4976856;28;21315;-78
2021/08/29 03:25:55;;;;;;;19.27;10.70;;;;;;;18.73;71.23;93210.38;4975351;28;20072;-78
2021/08/29 03:28:21;;;;;;;14.05;9.50;;;;;;;18.75;71.09;93211.56;4972887;28;20180;-78
2021/08/29 03:30:46;;;;;;;13.32;8.88;;;;;;;18.92;70.81;93228.19;4976624;28;20039;-78
2021/08/29 03:33:12;;;;;;;12.48;8.10;;;;;;;19.11;70.07;93236.72;4977226;28;20501;-78
2021/08/29 03:35:38;;;;;;;12.30;8.27;;;;;;;19.31;68.81;93240.59;4976682;28;20051;-78
2021/08/29 03:38:03;;;;;;;14.15;7.60;;;;;;;19.33;68.39;93237.53;4978231;28;20026;-77
2021/08/29 03:40:29;;;;;;;10.50;7.88;;;;;;;19.39;68.08;93240.63;4976379;28;20037;-77
2021/08/29 03:42:56;;;;;;;13.65;9.15;;;;;;;19.19;68.90;93232.09;4977368;28;20129;-78
2021/08/29 03:45:21;;;;;;;14.88;8.05;;;;;;;19.32;68.68;93247.53;4975342;28;20176;-78
2021/08/29 03:47:47;;;;;;;17.30;8.63;;;;;;;19.20;68.58;93220.19;4976120;28;20529;-78
2021/08/29 03:50:13;;;;;;;13.95;8.55;;;;;;;19.33;68.60;93242.94;4977243;28;20033;-78
2021/08/29 03:52:38;;;;;;;13.80;8.65;;;;;;;19.26;68.60;93227.50;4993186;28;20026;-78
2021/08/29 03:55:05;;;;;;;13.57;8.75;;;;;;;19.35;67.91;93250.66;4977144;28;20042;-78
2021/08/29 03:57:31;;;;;;;13.35;8.85;;;;;;;19.33;67.78;93259.88;4975371;28;20030;-78
2021/08/29 03:59:56;;;;;;;13.93;7.45;;;;;;;19.16;67.73;93254.44;4977444;28;20528;-78
2021/08/29 04:02:22;;;;;;;8.98;6.47;;;;;;;19.10;67.38;93255.97;4973707;28;20057;-78
2021/08/29 04:04:47;;;;;;;7.07;5.30;;;;;;;19.01;67.43;93274.41;4977590;28;20592;-78
2021/08/29 04:07:14;;;;;;;7.57;5.07;;;;;;;19.00;66.96;93267.47;4975495;28;20042;-78
2021/08/29 04:09:40;;;;;;;7.13;5.40;;;;;;;18.75;67.76;93268.13;4989669;28;20092;-78
2021/08/29 04:12:07;;;;;;;7.25;5.68;;;;;;;18.78;66.82;93250.41;4977980;28;20559;-79
2021/08/29 04:14:33;;;;;;;8.25;5.55;;;;;;;18.73;66.81;93254.25;4974439;28;20153;-79
2021/08/29 04:16:59;;;;;;;9.00;6.07;;;;;;;18.69;67.13;93264.22;4976390;28;20109;-78
2021/08/29 04:19:26;;;;;;;10.68;5.90;;;;;;;18.74;66.41;93266.56;4976707;28;20414;-78
2021/08/29 04:21:52;;;;;;;8.35;5.97;;;;;;;18.76;66.34;93269.69;4975943;28;20517;-79
2021/08/29 04:24:18;;;;;;;10.13;5.38;;;;;;;18.70;66.32;93281.13;4975145;28;20580;-78
2021/08/29 04:26:44;;;;;;;8.05;6.22;;;;;;;18.63;66.85;93271.09;4973964;28;20042;-78
2021/08/29 04:29:10;;;;;;;10.70;6.53;;;;;;;18.66;66.93;93275.75;4975344;28;20030;-78
2021/08/29 04:31:36;;;;;;;9.48;6.35;;;;;;;18.72;66.32;93287.75;4972870;28;20030;-79
2021/08/29 04:34:11;;;;;;;9.75;6.75;;;;;;;18.78;65.91;93298.91;4977398;28;20049;-79
2021/08/29 04:36:37;;;;;;;8.85;6.50;;;;;;;18.58;66.01;93284.91;4974831;28;20068;-78
2021/08/29 04:39:05;;;;;;;8.73;6.43;;;;;;;18.64;66.14;93298.81;4976857;28;20120;-78
2021/08/29 04:41:31;;;;;;;8.18;6.97;;;;;;;18.72;65.66;93293.13;4971316;28;20156;-78
2021/08/29 04:43:57;;;;;;;8.18;7.28;;;;;;;18.63;66.05;93289.94;4975356;28;20062;-78
2021/08/29 04:46:22;;;;;;;10.57;6.72;;;;;;;18.66;65.41;93291.91;4975055;28;20038;-78
2021/08/29 04:48:48;;;;;;;8.85;6.60;;;;;;;18.54;67.15;93300.28;4976806;28;20152;-77
2021/08/29 04:51:13;;;;;;;9.77;7.68;;;;;;;18.63;66.65;93306.09;4977176;28;20042;-78
2021/08/29 04:53:38;;;;;;;8.98;7.43;;;;;;;18.62;66.30;93296.50;4970229;28;20054;-79
2021/08/29 04:56:04;;;;;;;8.60;7.15;;;;;;;18.53;66.75;93271.06;4979737;28;20027;-78
2021/08/29 04:58:29;;;;;;;8.07;7.28;;;;;;;18.70;65.50;93264.97;4974681;28;20239;-78
2021/08/29 05:00:55;;;;;;;9.98;7.15;;;;;;;18.76;64.85;93250.81;4975022;28;20045;-78
2021/08/29 05:03:20;;;;;;;9.80;7.32;;;;;;;18.79;64.90;93255.44;4975304;28;20536;-78
2021/08/29 05:05:46;;;;;;;12.70;8.40;;;;;;;18.79;64.67;93255.44;4971717;28;20031;-79
2021/08/29 05:08:11;;;;;;;10.98;8.30;;;;;;;18.85;64.18;93251.25;4976209;28;20049;-78
2021/08/29 05:10:37;;;;;;;9.45;7.90;;;;;;;18.88;64.42;93260.47;4975638;28;20053;-78
2021/08/29 05:13:02;;;;;;;9.30;8.18;;;;;;;18.84;64.09;93260.47;4976755;28;20049;-78
2021/08/29 05:15:28;;;;;;;9.73;8.45;;;;;;;18.86;65.04;93257.41;4971877;28;20050;-78
2021/08/29 05:17:53;;;;;;;10.50;9.40;;;;;;;18.82;64.65;93246.59;4977228;28;20054;-78
2021/08/29 05:20:19;;;;;;;10.30;8.48;;;;;;;18.87;64.38;93259.69;4973658;28;20061;-78
2021/08/29 05:22:44;;;;;;;11.70;9.50;;;;;;;18.98;63.80;93245.50;4975073;28;20084;-78
2021/08/29 05:25:10;;;;;;;13.05;10.15;;;;;;;18.89;64.78;93262.03;4975806;28;20072;-78
2021/08/29 05:27:35;;;;;;;10.40;9.15;;;;;;;18.94;63.99;93255.50;4973186;28;20457;-79
2021/08/29 05:30:01;;;;;;;11.50;8.93;;;;;;;18.83;64.37;93240.06;4970028;28;20536;-78
2021/08/29 05:32:26;;;;;;;11.02;9.40;;;;;;;18.96;63.70;93245.91;4974067;28;20042;-78
2021/08/29 05:34:52;;;;;;;10.82;9.63;;;;;;;19.12;63.26;93267.88;4974257;28;20046;-78
2021/08/29 05:37:17;;;;;;;12.32;9.68;;;;;;;19.09;62.69;93273.28;4971103;28;20046;-78
2021/08/29 05:39:42;;;;;;;14.10;10.70;;;;;;;18.97;63.90;93279.00;4970599;28;20659;-78
2021/08/29 05:42:08;;;;;;;13.07;11.00;;;;;;;18.91;64.78;93269.75;4971628;28;20066;-78
2021/08/29 05:44:33;;;;;;;12.68;9.85;;;;;;;19.01;63.86;93275.19;4972630;28;21323;-78
2021/08/29 05:46:59;;;;;;;13.25;9.20;;;;;;;19.13;63.10;93274.81;4975395;28;20077;-77
2021/08/29 05:49:24;;;;;;;16.58;11.75;;;;;;;19.00;62.92;93270.16;4972024;28;20622;-78
2021/08/29 05:51:49;;;;;;;16.63;12.15;;;;;;;19.00;62.58;93262.06;4971665;28;20046;-78
2021/08/29 05:54:16;;;;;;;13.05;11.15;;;;;;;18.92;62.79;93249.72;4971213;28;20038;-78
2021/08/29 05:56:42;;;;;;;15.20;13.13;;;;;;;19.03;63.25;93261.31;4977393;28;20077;-78
2021/08/29 05:59:07;;;;;;;15.32;12.50;;;;;;;18.96;62.85;93231.66;4969293;28;20153;-78
2021/08/29 06:01:32;;;;;;;16.20;12.98;;;;;;;19.03;62.78;93261.31;4975107;28;20500;-77
2021/08/29 06:03:58;;;;;;;71.20;16.70;;;;;;;19.05;62.16;93259.03;4973723;28;20058;-78
2021/08/29 06:06:23;;;;;;;16.02;13.00;;;;;;;19.03;62.20;93255.91;4973585;28;20361;-78
2021/08/29 06:08:48;;;;;;;17.35;13.90;;;;;;;18.76;61.95;93223.88;4972503;28;20090;-78
2021/08/29 06:11:14;;;;;;;17.38;13.77;;;;;;;19.01;61.98;93263.63;4973359;28;20022;-79
2021/08/29 06:13:39;;;;;;;16.75;13.18;;;;;;;19.00;61.89;93275.53;4973932;28;21016;-78
2021/08/29 06:16:05;;;;;;;15.75;13.73;;;;;;;18.91;61.86;93250.88;4970570;28;20064;-78
2021/08/29 06:18:30;;;;;;;19.80;14.85;;;;;;;18.80;63.32;93248.91;4972563;28;20705;-78
2021/08/29 06:20:55;;;;;;;18.13;15.68;;;;;;;19.08;61.79;93260.94;4972682;28;20038;-78
2021/08/29 06:23:21;;;;;;;16.98;14.40;;;;;;;18.77;63.65;93252.34;4970906;28;20910;-78
2021/08/29 06:25:46;;;;;;;16.60;13.95;;;;;;;18.78;63.22;93253.88;4971545;28;20030;-79
2021/08/29 06:28:12;;;;;;;17.95;15.55;;;;;;;18.92;61.84;93245.09;4969345;28;20503;-78
2021/08/29 06:30:37;;;;;;;18.13;15.18;;;;;;;18.87;62.53;93243.53;4972815;28;20040;-78
2021/08/29 06:33:02;;;;;;;17.90;14.40;;;;;;;19.00;62.18;93262.06;4975542;28;20073;-78
2021/08/29 06:35:28;;;;;;;17.98;15.35;;;;;;;18.76;64.50;93264.28;4971595;28;20445;-78
2021/08/29 06:37:53;;;;;;;17.60;15.18;;;;;;;18.87;62.69;93254.31;4971708;28;20038;-78
2021/08/29 06:40:19;;;;;;;19.02;15.20;;;;;;;19.01;63.35;93269.00;4972494;28;20567;-78
2021/08/29 06:42:44;;;;;;;23.35;15.48;;;;;;;18.98;63.62;93280.53;4975116;28;20038;-78
2021/08/29 06:45:11;;;;;;;21.20;15.85;;;;;;;18.87;64.04;93273.16;4970929;28;20046;-78
2021/08/29 06:47:37;;;;;;;22.10;16.80;;;;;;;19.03;62.98;93285.56;4970890;28;20125;-78
2021/08/29 06:50:04;;;;;;;21.90;16.80;;;;;;;19.01;62.83;93285.19;4973266;28;20034;-78
2021/08/29 06:52:30;;;;;;;20.25;16.38;;;;;;;18.88;62.63;93282.81;4972548;28;20035;-78
2021/08/29 06:54:55;;;;;;;24.42;16.95;;;;;;;18.84;63.60;93282.03;4985061;28;20096;-78
2021/08/29 06:57:24;;;;;;;19.85;16.35;;;;;;;18.91;61.72;93265.13;4971744;28;20046;-79
2021/08/29 06:59:50;;;;;;;22.30;17.35;;;;;;;18.96;62.47;93289.00;4975420;28;20038;-78
2021/08/29 07:02:16;;;;;;;20.02;16.30;;;;;;;18.76;63.22;93264.28;4972103;28;20046;-79
2021/08/29 07:04:41;;;;;;;21.35;16.50;;;;;;;18.86;62.96;93260.88;4973886;28;20022;-78
2021/08/29 07:07:07;;;;;;;23.00;16.30;;;;;;;18.96;63.22;93272.84;4973727;28;20333;-79
2021/08/29 07:09:32;;;;;;;19.67;16.73;;;;;;;18.91;62.88;93253.56;4970806;28;20680;-78
2021/08/29 07:11:57;;;;;;;24.95;17.90;;;;;;;19.03;62.99;93266.69;4975855;28;20070;-77
2021/08/29 07:14:23;;;;;;;21.75;17.83;;;;;;;19.08;62.50;93277.13;4973930;28;20046;-79
2021/08/29 07:16:48;;;;;;;19.27;15.48;;;;;;;19.01;62.39;93260.94;4970997;28;20576;-79
2021/08/29 07:19:13;;;;;;;20.48;16.42;;;;;;;19.06;62.59;93269.44;4974839;28;20049;-79
2021/08/29 07:21:39;;;;;;;19.50;15.63;;;;;;;18.96;62.46;93255.91;4973197;28;20445;-78
2021/08/29 07:24:04;;;;;;;21.80;16.75;;;;;;;19.04;61.93;93273.63;4977392;28;20058;-78
2021/08/29 07:26:30;;;;;;;21.77;16.75;;;;;;;18.78;64.00;93261.19;4971709;28;20445;-78
2021/08/29 07:28:55;;;;;;;21.92;16.67;;;;;;;18.86;64.54;93287.81;4972146;28;20058;-78
2021/08/29 07:31:20;;;;;;;21.55;17.15;;;;;;;18.97;64.30;93289.78;4971991;28;20483;-79
2021/08/29 07:33:46;;;;;;;22.35;16.30;;;;;;;19.02;62.75;93290.19;4974155;28;20088;-79
2021/08/29 07:36:11;;;;;;;22.95;17.15;;;;;;;18.70;63.42;93255.00;4973044;28;20038;-78
2021/08/29 07:38:37;;;;;;;21.15;17.15;;;;;;;19.01;64.56;93290.56;4972363;28;20038;-78
2021/08/29 07:41:02;;;;;;;23.50;17.15;;;;;;;18.83;65.17;93271.59;4973617;28;20026;-78
2021/08/29 07:43:28;;;;;;;27.58;21.63;;;;;;;18.89;65.25;93265.50;4971090;28;20452;-78
2021/08/29 07:45:53;;;;;;;24.05;18.45;;;;;;;18.81;65.12;93288.16;4963857;28;20389;-78
2021/08/29 07:48:19;;;;;;;22.08;18.02;;;;;;;18.55;65.83;93282.97;4973616;28;20038;-78
2021/08/29 07:50:44;;;;;;;25.10;18.67;;;;;;;18.65;65.32;93249.19;4974211;28;20497;-78
2021/08/29 07:53:09;;;;;;;24.75;17.35;;;;;;;19.07;64.16;93272.88;4971810;28;20030;-78
2021/08/29 07:55:35;;;;;;;22.80;16.83;;;;;;;19.07;64.69;93267.47;4974407;28;20027;-79
2021/08/29 07:58:00;;;;;;;21.48;16.48;;;;;;;18.95;64.13;93248.97;4971503;28;20466;-78
2021/08/29 08:00:26;;;;;;;20.50;16.77;;;;;;;19.02;64.43;93254.41;4969222;28;20353;-78
2021/08/29 08:02:52;;;;;;;26.20;15.77;;;;;;;19.14;64.40;93273.69;4970966;28;20049;-79
2021/08/29 08:05:17;;;;;;;24.33;16.73;;;;;;;19.09;65.30;93273.28;4975260;28;20502;-78
2021/08/29 08:07:43;;;;;;;21.58;15.43;;;;;;;19.09;64.79;93265.97;4977510;28;20034;-78
2021/08/29 08:10:09;;;;;;;21.15;16.48;;;;;;;19.17;63.60;93255.97;4975702;28;20608;-78
2021/08/29 08:12:34;;;;;;;23.77;15.27;;;;;;;19.21;63.93;93272.94;4974145;28;20484;-79
2021/08/29 08:15:00;;;;;;;27.83;17.52;;;;;;;19.24;63.56;93272.19;4975256;28;20137;-78
2021/08/29 08:17:25;;;;;;;23.45;17.10;;;;;;;19.16;64.07;93271.38;4977034;28;20046;-79
2021/08/29 08:19:51;;;;;;;21.98;16.85;;;;;;;19.09;64.42;93275.97;4973179;28;21766;-78
2021/08/29 08:22:17;;;;;;;21.10;17.08;;;;;;;19.19;64.35;93292.19;4976840;28;20044;-78
2021/08/29 08:24:42;;;;;;;22.35;17.88;;;;;;;19.24;64.07;93288.34;4975208;28;20763;-78
2021/08/29 08:27:07;;;;;;;22.73;17.77;;;;;;;19.36;63.76;93277.22;4977482;28;20038;-80
2021/08/29 08:29:33;;;;;;;20.45;17.35;;;;;;;19.42;64.13;93283.78;4973767;28;20070;-77
2021/08/29 08:31:58;;;;;;;21.50;15.63;;;;;;;19.52;62.34;93266.88;4977013;28;20037;-78
2021/08/29 08:34:24;;;;;;;26.30;18.98;;;;;;;19.41;63.13;93266.06;4975794;28;20390;-78
2021/08/29 08:36:49;;;;;;;27.27;18.35;;;;;;;19.41;63.61;93268.75;4976172;28;20050;-77
2021/08/29 08:39:15;;;;;;;22.33;16.98;;;;;;;19.39;62.54;93278.38;4978121;28;20089;-78
2021/08/29 08:41:40;;;;;;;24.33;19.58;;;;;;;19.25;64.07;93273.72;4972531;28;20049;-78
2021/08/29 08:44:07;;;;;;;23.00;17.58;;;;;;;19.42;65.61;93278.38;4973883;28;20311;-78
2021/08/29 08:46:32;;;;;;;23.80;19.70;;;;;;;19.46;65.10;93279.19;4976130;28;20019;-78
2021/08/29 08:49:01;;;;;;;24.73;19.23;;;;;;;19.39;64.83;93275.69;4976811;28;20033;-78
2021/08/29 08:51:29;;;;;;;21.65;18.13;;;;;;;19.35;64.40;93261.44;4977336;28;20119;-79
2021/08/29 08:53:56;;;;;;;22.42;18.27;;;;;;;19.61;64.34;93269.97;4970893;28;20768;-78
2021/08/29 08:56:23;;;;;;;26.75;18.83;;;;;;;19.47;64.54;93261.88;4976277;28;20121;-78
2021/08/29 08:58:51;;;;;;;26.58;20.25;;;;;;;19.51;64.25;93270.72;4970696;28;20069;-79
2021/08/29 09:01:17;;;;;;;25.23;19.40;;;;;;;19.40;64.55;93256.44;4976278;28;20096;-78
2021/08/29 09:03:43;;;;;;;27.15;19.20;;;;;;;19.51;65.47;93268.03;4974189;28;20118;-78
2021/08/29 09:06:09;;;;;;;27.63;20.17;;;;;;;19.48;65.72;93255.31;4976203;28;20489;-77
2021/08/29 09:08:35;;;;;;;28.65;20.27;;;;;;;19.61;64.20;93275.38;4975208;28;20053;-79
2021/08/29 09:11:02;;;;;;;25.38;20.23;;;;;;;19.61;64.58;93272.69;4973403;28;20054;-78
2021/08/29 09:13:48;;;;;;;26.50;20.63;;;;;;;19.65;64.75;93270.75;4976363;28;20398;-79
2021/08/29 09:16:16;;;;;;;24.80;20.92;;;;;;;19.77;65.65;93266.16;4974123;28;20081;-78
2021/08/29 09:18:48;;;;;;;25.45;20.77;;;;;;;19.82;66.49;93263.84;4975316;28;20035;-78
2021/08/29 09:21:22;;;;;;;22.35;18.25;;;;;;;19.88;63.50;93242.66;4975481;28;20521;-78
2021/08/29 09:23:48;;;;;;;29.83;20.15;;;;;;;;;;4972656;28;20046;-78
2021/08/29 09:26:16;;;;;;;30.17;21.65;;;;;;;19.87;64.23;93249.22;4973443;28;20046;-78
2021/08/29 09:28:41;;;;;;;26.35;19.92;;;;;;;20.05;65.13;93248.03;4976366;28;20246;-79
2021/08/29 09:31:07;;;;;;;24.70;19.80;;;;;;;20.14;63.57;93245.72;4971318;28;20378;-78
2021/08/29 09:33:33;;;;;;;26.02;19.20;;;;;;;20.20;64.02;93243.44;4973774;28;20425;-79
2021/08/29 09:35:59;;;;;;;22.52;16.85;;;;;;;20.26;62.63;93257.31;4971544;28;20046;-77
2021/08/29 09:38:24;;;;;;;23.20;18.15;;;;;;;20.20;62.07;93251.53;4971785;28;20104;-78
2021/08/29 09:40:50;;;;;;;23.60;16.42;;;;;;;20.28;60.53;93261.19;4986674;28;20050;-79
2021/08/29 09:43:15;;;;;;;21.90;17.08;;;;;;;20.17;61.34;93257.72;4971947;28;20101;-79
2021/08/29 09:45:43;;;;;;;22.67;17.85;;;;;;;20.09;62.18;93258.88;4971984;28;20101;-77
2021/08/29 09:48:14;;;;;;;20.98;16.02;;;;;;;20.11;61.32;93253.84;4974728;28;20034;-78
2021/08/29 09:50:42;;;;;;;17.38;15.55;;;;;;;19.91;61.58;93228.38;4976889;28;20038;-78
2021/08/29 09:53:09;;;;;;;18.85;15.02;;;;;;;20.07;61.80;93256.53;4987176;28;20484;-78
2021/08/29 09:55:37;;;;;;;20.65;15.88;;;;;;;20.02;61.91;93246.13;4973877;28;20117;-78
2021/08/29 09:58:24;;;;;;;19.67;15.45;;;;;;;20.15;61.26;93255.38;4954681;28;20042;-78
2021/08/29 10:01:18;;;;;;;25.83;18.13;;;;;;;20.16;62.20;93261.53;4958304;28;20027;-78
2021/08/29 10:03:49;;;;;;;22.10;16.75;;;;;;;20.18;63.49;93264.69;4953262;28;21036;-78
2021/08/29 10:06:24;;;;;;;25.40;15.68;;;;;;;19.80;64.13;93254.63;4971555;28;20055;-79
2021/08/29 10:08:57;;;;;;;21.77;16.77;;;;;;;20.06;64.19;93251.53;4954679;28;20045;-79
2021/08/29 10:11:25;;;;;;;25.05;18.60;;;;;;;20.09;63.47;93239.97;4956535;28;20038;-79
2021/08/29 10:13:51;;;;;;;25.70;20.15;;;;;;;20.14;63.61;93250.38;4973991;28;20065;-78
2021/08/29 10:16:18;;;;;;;26.70;20.55;;;;;;;20.17;63.85;93249.63;4986070;28;20066;-78
2021/08/29 10:18:46;;;;;;;25.60;20.23;;;;;;;19.99;64.68;93246.91;4969275;28;20042;-78
2021/08/29 10:21:14;;;;;;;27.27;21.20;;;;;;;19.94;65.38;93239.19;4973584;28;20038;-78
2021/08/29 10:23:46;;;;;;;23.50;19.05;;;;;;;20.11;64.44;93248.44;4975350;28;20038;-79
2021/08/29 10:26:15;;;;;;;26.00;19.45;;;;;;;20.34;65.24;93256.94;4973508;28;20108;-78
2021/08/29 10:28:49;;;;;;;20.85;16.40;;;;;;;20.47;62.35;93247.28;4969334;28;20018;-78
2021/08/29 10:31:18;;;;;;;21.37;15.60;;;;;;;20.63;61.04;93246.09;4974184;28;20085;-78
2021/08/29 10:33:47;;;;;;;23.35;15.70;;;;;;;20.57;60.25;93238.38;4974754;28;20498;-78
2021/08/29 10:36:20;;;;;;;19.67;15.18;;;;;;;20.40;59.03;93233.78;4969663;28;20069;-78
2021/08/29 10:38:47;;;;;;;19.90;15.40;;;;;;;20.57;60.51;93249.19;4973203;28;20041;-78
2021/08/29 10:41:17;;;;;;;18.63;14.85;;;;;;;20.57;59.10;93234.91;4972379;28;20415;-79
2021/08/29 10:43:45;;;;;;;18.70;14.55;;;;;;;20.66;59.93;93240.69;4973696;28;20734;-77
2021/08/29 10:46:14;;;;;;;19.05;15.07;;;;;;;20.63;60.30;93213.69;4972292;28;20046;-79
2021/08/29 10:48:42;;;;;;;18.40;13.95;;;;;;;20.78;61.00;93232.13;4972874;28;20042;-78
2021/08/29 10:51:10;;;;;;;17.92;14.18;;;;;;;20.76;58.92;93222.91;4972559;28;20030;-79
2021/08/29 10:53:41;;;;;;;17.70;14.68;;;;;;;20.77;60.02;93229.84;4972596;28;20049;-79
2021/08/29 10:56:33;;;;;;;17.88;14.50;;;;;;;20.92;57.62;93221.31;4976042;28;20570;-80
2021/08/29 10:59:07;;;;;;;20.42;15.73;;;;;;;20.83;58.35;93228.25;4972076;28;20046;-78
2021/08/29 11:01:43;;;;;;;15.82;13.93;;;;;;;20.82;59.46;93210.53;4969555;28;20454;-78
2021/08/29 11:04:20;;;;;;;20.00;14.57;;;;;;;21.01;57.95;93235.19;4965067;28;20513;-78
2021/08/29 11:06:51;;;;;;;23.27;15.88;;;;;;;21.00;55.95;93222.84;4977287;28;20038;-78
2021/08/29 11:09:43;;;;;;;21.88;16.20;;;;;;;20.99;58.47;93220.50;4967882;28;20217;-79
2021/08/29 11:12:15;;;;;;;22.60;16.15;;;;;;;20.99;58.51;93221.28;4968490;28;20442;-78
2021/08/29 11:14:53;;;;;;;21.42;16.50;;;;;;;20.83;58.76;93201.22;4973759;28;20046;-79
2021/08/29 11:17:26;;;;;;;21.63;15.73;;;;;;;20.88;58.99;93219.78;4974184;28;20046;-78
2021/08/29 11:19:55;;;;;;;21.00;15.35;;;;;;;20.78;58.28;93215.16;4973283;28;20035;-79